Time,TemperatureF,DewpointF,PressureIn,WindDirection,WindDirectionDegrees,WindSpeedMPH,WindSpeedGustMPH,Humidity,HourlyPrecipIn,Conditions,Clouds,dailyrainin,SoftwareType,DateUTC
2013-03-18 00:07:00,17.4,12.0,30.25,NE,45,0.0,-999.0,79,-99.99,,,0.00,Acu-Link.com,2013-03-18 04:07:00,
2013-03-18 00:22:00,17.1,11.2,30.24,South,180,0.0,-999.0,77,-99.99,,,0.00,Acu-Link.com,2013-03-18 04:22:00,
2013-03-18 00:53:00,16.5,11.4,30.24,East,90,0.0,-999.0,80,-99.99,,,0.00,Acu-Link.com,2013-03-18 04:53:00,
2013-03-18 01:08:00,17.1,11.2,30.23,NNE,22,0.0,-999.0,77,-99.99,,,0.00,Acu-Link.com,2013-03-18 05:08:00,
2013-03-18 01:23:00,17.6,10.7,30.23,East,90,0.0,-999.0,74,-99.99,,,0.00,Acu-Link.com,2013-03-18 05:23:00,
2013-03-18 01:38:00,17.6,10.4,30.23,East,90,0.0,-999.0,73,-99.99,,,0.00,Acu-Link.com,2013-03-18 05:38:00,
2013-03-18 01:54:00,17.8,10.6,30.22,NE,45,0.0,-999.0,73,-99.99,,,0.00,Acu-Link.com,2013-03-18 05:54:00,
2013-03-18 02:09:00,17.8,10.6,30.22,ENE,67,0.0,-999.0,73,-99.99,,,0.00,Acu-Link.com,2013-03-18 06:09:00,
2013-03-18 02:24:00,18.0,10.5,30.21,NNE,22,0.0,-999.0,72,-99.99,,,0.00,Acu-Link.com,2013-03-18 06:24:00,
2013-03-18 02:40:00,18.1,10.3,30.20,ENE,67,2.2,-999.0,71,-99.99,,,0.00,Acu-Link.com,2013-03-18 06:40:00,
2013-03-18 02:55:00,18.3,10.5,30.21,NNW,337,2.2,-999.0,71,-99.99,,,0.00,Acu-Link.com,2013-03-18 06:55:00,
2013-03-18 03:10:00,18.3,10.2,30.20,ENE,67,1.1,-999.0,70,-99.99,,,0.00,Acu-Link.com,2013-03-18 07:10:00,
2013-03-18 03:26:00,18.5,10.1,30.20,East,90,1.7,-999.0,69,-99.99,,,0.00,Acu-Link.com,2013-03-18 07:26:00,
2013-03-18 03:41:00,18.7,10.2,30.20,North,0,0.0,-999.0,69,-99.99,,,0.00,Acu-Link.com,2013-03-18 07:41:00,
2013-03-18 03:56:00,18.9,10.1,30.18,NE,45,1.1,-999.0,68,-99.99,,,0.00,Acu-Link.com,2013-03-18 07:56:00,
2013-03-18 04:11:00,18.7,9.9,30.19,East,90,2.7,-999.0,68,-99.99,,,0.00,Acu-Link.com,2013-03-18 08:11:00,
2013-03-18 04:26:00,18.9,10.1,30.20,NW,315,1.7,-999.0,68,-99.99,,,0.00,Acu-Link.com,2013-03-18 08:26:00,
2013-03-18 04:42:00,18.9,9.8,30.19,ENE,67,0.0,-999.0,67,-99.99,,,0.00,Acu-Link.com,2013-03-18 08:42:00,
2013-03-18 04:57:00,18.9,9.8,30.19,East,90,0.0,-999.0,67,-99.99,,,0.00,Acu-Link.com,2013-03-18 08:57:00,
2013-03-18 05:12:00,18.7,9.6,30.20,East,90,1.7,-999.0,67,-99.99,,,0.00,Acu-Link.com,2013-03-18 09:12:00,
2013-03-18 05:28:00,19.0,9.9,30.19,ENE,67,2.2,-999.0,67,-99.99,,,0.00,Acu-Link.com,2013-03-18 09:28:00,
2013-03-18 05:43:00,19.4,10.3,30.18,East,90,1.7,-999.0,67,-99.99,,,0.00,Acu-Link.com,2013-03-18 09:43:00,
2013-03-18 05:58:00,19.4,10.3,30.17,NNE,22,1.1,-999.0,67,-99.99,,,0.00,Acu-Link.com,2013-03-18 09:58:00,
2013-03-18 06:14:00,19.4,10.6,30.17,ENE,67,2.7,-999.0,68,-99.99,,,0.00,Acu-Link.com,2013-03-18 10:14:00,
2013-03-18 06:29:00,19.8,11.3,30.18,East,90,3.2,-999.0,69,-99.99,,,0.00,Acu-Link.com,2013-03-18 10:29:00,
2013-03-18 06:44:00,20.1,11.9,30.17,NE,45,4.2,-999.0,70,-99.99,,,0.00,Acu-Link.com,2013-03-18 10:44:00,
2013-03-18 06:59:00,20.5,12.6,30.16,ESE,112,2.7,-999.0,71,-99.99,,,0.00,Acu-Link.com,2013-03-18 10:59:00,
2013-03-18 07:15:00,20.5,13.2,30.15,ENE,67,3.2,-999.0,73,-99.99,,,0.00,Acu-Link.com,2013-03-18 11:15:00,
2013-03-18 07:30:00,20.8,13.8,30.15,NE,45,1.1,-999.0,74,-99.99,,,0.00,Acu-Link.com,2013-03-18 11:30:00,
2013-03-18 07:45:00,21.2,14.5,30.15,ENE,67,2.2,-999.0,75,-99.99,,,0.00,Acu-Link.com,2013-03-18 11:45:00,
2013-03-18 08:00:00,21.6,14.9,30.13,West,270,2.2,-999.0,75,-99.99,,,0.00,Acu-Link.com,2013-03-18 12:00:00,
2013-03-18 08:15:00,22.3,15.6,30.11,East,90,3.7,-999.0,75,-99.99,,,0.00,Acu-Link.com,2013-03-18 12:15:00,
2013-03-18 08:30:00,23.0,16.0,30.09,East,90,4.7,-999.0,74,-99.99,,,0.00,Acu-Link.com,2013-03-18 12:30:00,
2013-03-18 09:01:00,25.2,17.1,30.08,ENE,67,0.0,-999.0,71,-99.99,,,0.00,Acu-Link.com,2013-03-18 13:01:00,
2013-03-18 09:17:00,26.1,17.3,30.07,SE,135,3.7,-999.0,69,-99.99,,,0.00,Acu-Link.com,2013-03-18 13:17:00,
2013-03-18 09:32:00,27.1,17.6,30.07,ESE,112,3.7,-999.0,67,-99.99,,,0.00,Acu-Link.com,2013-03-18 13:32:00,
2013-03-18 09:47:00,28.2,18.7,30.04,ENE,67,6.3,-999.0,67,-99.99,,,0.00,Acu-Link.com,2013-03-18 13:47:00,
2013-03-18 10:03:00,28.8,18.9,30.04,East,90,3.7,-999.0,66,-99.99,,,0.00,Acu-Link.com,2013-03-18 14:03:00,
2013-03-18 10:18:00,29.8,19.5,30.04,ESE,112,4.7,-999.0,65,-99.99,,,0.00,Acu-Link.com,2013-03-18 14:18:00,
2013-03-18 10:33:00,30.0,19.3,30.02,WSW,247,2.2,-999.0,64,-99.99,,,0.00,Acu-Link.com,2013-03-18 14:33:00,
2013-03-18 10:48:00,30.7,20.0,30.01,North,0,1.7,-999.0,64,-99.99,,,0.00,Acu-Link.com,2013-03-18 14:48:00,
2013-03-18 11:03:00,31.5,20.4,29.99,ENE,67,3.2,-999.0,63,-99.99,,,0.00,Acu-Link.com,2013-03-18 15:03:00,
2013-03-18 11:18:00,32.0,20.5,29.99,North,0,4.7,-999.0,62,-99.99,,,0.00,Acu-Link.com,2013-03-18 15:18:00,
2013-03-18 11:33:00,32.5,20.6,29.99,East,90,4.2,-999.0,61,-99.99,,,0.00,Acu-Link.com,2013-03-18 15:33:00,
2013-03-18 11:49:00,33.1,21.1,29.99,East,90,3.2,-999.0,61,-99.99,,,0.00,Acu-Link.com,2013-03-18 15:49:00,
2013-03-18 12:04:00,33.3,20.5,29.97,ESE,112,3.2,-999.0,59,-99.99,,,0.00,Acu-Link.com,2013-03-18 16:04:00,
2013-03-18 12:19:00,33.4,20.6,29.96,West,270,4.7,-999.0,59,-99.99,,,0.00,Acu-Link.com,2013-03-18 16:19:00,
2013-03-18 12:34:00,33.6,20.0,29.96,SSW,202,3.7,-999.0,57,-99.99,,,0.00,Acu-Link.com,2013-03-18 16:34:00,
2013-03-18 12:49:00,34.3,19.8,29.96,NE,45,4.7,-999.0,55,-99.99,,,0.00,Acu-Link.com,2013-03-18 16:49:00,
2013-03-18 13:05:00,34.5,20.0,29.94,NNW,337,2.7,-999.0,55,-99.99,,,0.00,Acu-Link.com,2013-03-18 17:05:00,
2013-03-18 13:20:00,34.9,19.5,29.94,ESE,112,2.7,-999.0,53,-99.99,,,0.00,Acu-Link.com,2013-03-18 17:20:00,
2013-03-18 13:35:00,34.5,19.2,29.94,East,90,3.2,-999.0,53,-99.99,,,0.00,Acu-Link.com,2013-03-18 17:35:00,
2013-03-18 13:50:00,34.3,18.5,29.91,ESE,112,7.3,-999.0,52,-99.99,,,0.00,Acu-Link.com,2013-03-18 17:50:00,
2013-03-18 14:05:00,35.1,19.3,29.91,East,90,3.2,-999.0,52,-99.99,,,0.00,Acu-Link.com,2013-03-18 18:05:00,
2013-03-18 14:36:00,36.0,20.1,29.89,ESE,112,3.2,-999.0,52,-99.99,,,0.00,Acu-Link.com,2013-03-18 18:36:00,
2013-03-18 14:51:00,36.1,21.9,29.86,NE,45,3.2,-999.0,56,-99.99,,,0.00,Acu-Link.com,2013-03-18 18:51:00,
2013-03-18 15:07:00,33.4,29.1,29.86,NE,45,4.2,-999.0,84,-99.99,,,0.00,Acu-Link.com,2013-03-18 19:07:00,
2013-03-18 15:22:00,32.4,30.3,29.85,ESE,112,2.7,-999.0,92,-99.99,,,0.00,Acu-Link.com,2013-03-18 19:22:00,
2013-03-18 15:37:00,32.0,30.2,29.83,ENE,67,0.0,-999.0,93,-99.99,,,0.00,Acu-Link.com,2013-03-18 19:37:00,
2013-03-18 15:52:00,31.6,30.1,29.83,NNE,22,3.7,-999.0,94,-99.99,,,0.00,Acu-Link.com,2013-03-18 19:52:00,
2013-03-18 16:07:00,31.8,30.3,29.82,East,90,3.7,-999.0,94,-99.99,,,0.00,Acu-Link.com,2013-03-18 20:07:00,
2013-03-18 16:38:00,31.1,29.3,29.79,ESE,112,4.2,-999.0,93,-99.99,,,0.00,Acu-Link.com,2013-03-18 20:38:00,
2013-03-18 16:53:00,31.6,29.8,29.77,NE,45,4.2,-999.0,93,-99.99,,,0.00,Acu-Link.com,2013-03-18 20:53:00,
2013-03-18 17:08:00,31.8,29.7,29.76,NNE,22,3.7,-999.0,92,-99.99,,,0.00,Acu-Link.com,2013-03-18 21:08:00,
2013-03-18 17:24:00,31.6,29.0,29.75,East,90,4.2,-999.0,90,-99.99,,,0.00,Acu-Link.com,2013-03-18 21:24:00,
2013-03-18 17:39:00,31.8,28.7,29.75,ESE,112,5.8,-999.0,88,-99.99,,,0.00,Acu-Link.com,2013-03-18 21:39:00,
2013-03-18 17:54:00,31.6,27.6,29.75,ESE,112,3.7,-999.0,85,-99.99,,,0.00,Acu-Link.com,2013-03-18 21:54:00,
2013-03-18 18:09:00,31.5,28.6,29.73,NE,45,5.3,-999.0,89,-99.99,,,0.00,Acu-Link.com,2013-03-18 22:09:00,
2013-03-18 18:24:00,31.5,28.1,29.73,East,90,3.2,-999.0,87,-99.99,,,0.00,Acu-Link.com,2013-03-18 22:24:00,
2013-03-18 18:39:00,31.6,28.2,29.73,ENE,67,2.2,-999.0,87,-99.99,,,0.00,Acu-Link.com,2013-03-18 22:39:00,
2013-03-18 18:55:00,31.5,28.6,29.71,SE,135,4.7,-999.0,89,-99.99,,,0.00,Acu-Link.com,2013-03-18 22:55:00,
2013-03-18 19:10:00,31.6,28.7,29.71,East,90,3.7,-999.0,89,-99.99,,,0.00,Acu-Link.com,2013-03-18 23:10:00,
2013-03-18 19:25:00,31.3,29.3,29.69,SE,135,6.3,-999.0,92,-99.99,,,0.00,Acu-Link.com,2013-03-18 23:25:00,
2013-03-18 19:41:00,31.1,29.3,29.69,ESE,112,4.7,-999.0,93,-99.99,,,0.00,Acu-Link.com,2013-03-18 23:41:00,
2013-03-18 19:56:00,30.9,29.4,29.69,West,270,3.2,-999.0,94,-99.99,,,0.00,Acu-Link.com,2013-03-18 23:56:00,
2013-03-18 20:11:00,31.1,29.6,29.67,NE,45,3.7,-999.0,94,-99.99,,,0.00,Acu-Link.com,2013-03-19 00:11:00,
2013-03-18 20:26:00,32.0,30.2,29.65,East,90,3.7,-999.0,93,-99.99,,,0.00,Acu-Link.com,2013-03-19 00:26:00,
2013-03-18 20:42:00,32.5,31.0,29.65,North,0,3.2,-999.0,94,-99.99,,,0.00,Acu-Link.com,2013-03-19 00:42:00,
2013-03-18 20:57:00,32.7,31.2,29.64,ESE,112,5.3,-999.0,94,-99.99,,,0.00,Acu-Link.com,2013-03-19 00:57:00,
2013-03-18 21:12:00,32.9,31.4,29.63,ESE,112,3.2,-999.0,94,-99.99,,,0.00,Acu-Link.com,2013-03-19 01:12:00,
2013-03-18 21:27:00,32.9,31.6,29.62,NNE,22,2.7,-999.0,95,-99.99,,,0.00,Acu-Link.com,2013-03-19 01:27:00,
2013-03-18 21:42:00,33.3,32.0,29.61,ESE,112,5.3,-999.0,95,-99.99,,,0.00,Acu-Link.com,2013-03-19 01:42:00,
2013-03-18 21:58:00,33.3,32.0,29.61,East,90,0.0,-999.0,95,-99.99,,,0.00,Acu-Link.com,2013-03-19 01:58:00,
2013-03-18 22:13:00,33.4,32.9,29.59,SSE,157,2.7,-999.0,98,-99.99,,,0.00,Acu-Link.com,2013-03-19 02:13:00,
2013-03-18 22:28:00,33.4,32.9,29.59,East,90,0.0,-999.0,98,-99.99,,,0.00,Acu-Link.com,2013-03-19 02:28:00,
2013-03-18 22:43:00,33.6,33.1,29.59,SSW,202,0.0,-999.0,98,-99.99,,,0.00,Acu-Link.com,2013-03-19 02:43:00,
2013-03-18 22:59:00,33.4,32.9,29.57,South,180,0.0,-999.0,98,-99.99,,,0.00,Acu-Link.com,2013-03-19 02:59:00,
2013-03-18 23:14:00,33.6,33.1,29.57,SE,135,0.0,-999.0,98,-99.99,,,0.00,Acu-Link.com,2013-03-19 03:14:00,
2013-03-18 23:29:00,33.6,33.1,29.56,South,180,0.0,-999.0,98,-99.99,,,0.00,Acu-Link.com,2013-03-19 03:29:00,
2013-03-18 23:44:00,34.0,33.5,29.57,SSW,202,1.7,-999.0,98,-99.99,,,0.00,Acu-Link.com,2013-03-19 03:44:00,